KMKE/MKE METAR and TAF weather

Enter ICAO airport designator
Station Type Date Time Source
KMKE METAR 2020/01/28 20:52 UTC NOAA

KMKE 282052Z 27005KT 10SM OVC019 M01/M06 A3007 RMK AO2 SLP192 T10061061 55003


Station Type Date Time Source
KMKE Decoded METAR 2020/01/28 20:52 UTC NOAA

GEN MITCHELL INTERNATIONAL AIRPORT, WI, United States (KMKE) 42-57N 87-54W 206M
Jan 28, 2020 - 03:52 PM EST / 2020.01.28 2052 UTC
Wind: from the W (270 degrees) at 6 MPH (5 KT):0
Visibility: 10 mile(s):0
Sky conditions: overcast
Temperature: 30.9 F (-0.6 C)
Windchill: 24 F (-4 C):1
Dew Point: 21.0 F (-6.1 C)
Relative Humidity: 66%
Pressure (altimeter): 30.07 in. Hg (1018 hPa)
Pressure tendency: 0.01 inches (0.3 hPa) lower than three hours ago
ob: KMKE 282052Z 27005KT 10SM OVC019 M01/M06 A3007 RMK AO2 SLP192 T10061061 55003
cycle: 21

Station Type Date Time Source
KMKE TAF 2020/01/28 20:30 UTC NOAA

TAF
AMD KMKE 282027Z 2820/2924 33005KT P6SM OVC020
TEMPO 2820/2822 OVC019
FM290000 VRB03KT P6SM OVC023

Example: see airport list